sensor_id;sensor_type;location;lat;lon;timestamp;P1;durP1;ratioP1;P2;durP2;ratioP2
50789;SDS011;37287;47.554;7.844;2024-03-17T00:01:02;2.30;;;1.80;;
50789;SDS011;37287;47.554;7.844;2024-03-17T00:03:29;3.97;;;1.73;;
50789;SDS011;37287;47.554;7.844;2024-03-17T00:05:58;2.65;;;1.70;;
50789;SDS011;37287;47.554;7.844;2024-03-17T00:08:25;2.70;;;1.88;;
50789;SDS011;37287;47.554;7.844;2024-03-17T00:10:52;2.78;;;1.90;;
50789;SDS011;37287;47.554;7.844;2024-03-17T00:13:18;4.40;;;1.77;;
50789;SDS011;37287;47.554;7.844;2024-03-17T00:16:09;2.53;;;1.83;;
50789;SDS011;37287;47.554;7.844;2024-03-17T00:18:35;6.25;;;1.98;;
50789;SDS011;37287;47.554;7.844;2024-03-17T00:21:02;5.03;;;2.40;;
50789;SDS011;37287;47.554;7.844;2024-03-17T00:23:27;4.20;;;2.05;;
50789;SDS011;37287;47.554;7.844;2024-03-17T00:25:54;7.05;;;2.30;;
50789;SDS011;37287;47.554;7.844;2024-03-17T00:28:20;4.80;;;2.05;;
50789;SDS011;37287;47.554;7.844;2024-03-17T00:30:46;3.53;;;2.35;;
50789;SDS011;37287;47.554;7.844;2024-03-17T00:33:12;3.15;;;2.35;;
50789;SDS011;37287;47.554;7.844;2024-03-17T00:35:39;3.58;;;2.40;;
50789;SDS011;37287;47.554;7.844;2024-03-17T00:38:05;2.50;;;2.22;;
50789;SDS011;37287;47.554;7.844;2024-03-17T00:40:38;3.22;;;2.45;;
50789;SDS011;37287;47.554;7.844;2024-03-17T00:43:07;6.25;;;2.90;;
50789;SDS011;37287;47.554;7.844;2024-03-17T00:45:33;3.80;;;2.28;;
50789;SDS011;37287;47.554;7.844;2024-03-17T00:47:59;3.25;;;2.20;;
50789;SDS011;37287;47.554;7.844;2024-03-17T00:50:25;4.38;;;2.40;;
50789;SDS011;37287;47.554;7.844;2024-03-17T00:52:50;5.28;;;2.60;;
50789;SDS011;37287;47.554;7.844;2024-03-17T00:55:16;3.42;;;2.40;;
50789;SDS011;37287;47.554;7.844;2024-03-17T00:57:42;3.20;;;2.38;;
50789;SDS011;37287;47.554;7.844;2024-03-17T01:00:08;2.33;;;2.10;;
50789;SDS011;37287;47.554;7.844;2024-03-17T01:02:37;3.50;;;2.58;;
50789;SDS011;37287;47.554;7.844;2024-03-17T01:05:05;6.72;;;2.50;;
50789;SDS011;37287;47.554;7.844;2024-03-17T01:07:31;4.75;;;2.60;;
50789;SDS011;37287;47.554;7.844;2024-03-17T01:09:58;2.97;;;2.10;;
50789;SDS011;37287;47.554;7.844;2024-03-17T01:12:23;4.55;;;2.50;;
50789;SDS011;37287;47.554;7.844;2024-03-17T01:14:50;3.55;;;2.65;;
50789;SDS011;37287;47.554;7.844;2024-03-17T01:17:16;3.88;;;2.65;;
50789;SDS011;37287;47.554;7.844;2024-03-17T01:19:44;3.83;;;2.60;;
50789;SDS011;37287;47.554;7.844;2024-03-17T01:22:10;3.10;;;2.30;;
50789;SDS011;37287;47.554;7.844;2024-03-17T01:24:36;2.67;;;2.17;;
50789;SDS011;37287;47.554;7.844;2024-03-17T01:27:05;4.28;;;2.53;;
50789;SDS011;37287;47.554;7.844;2024-03-17T01:29:31;4.40;;;2.58;;
50789;SDS011;37287;47.554;7.844;2024-03-17T01:31:57;6.32;;;2.70;;
50789;SDS011;37287;47.554;7.844;2024-03-17T01:34:23;5.05;;;2.90;;
50789;SDS011;37287;47.554;7.844;2024-03-17T01:36:49;4.63;;;2.40;;
50789;SDS011;37287;47.554;7.844;2024-03-17T01:39:15;7.03;;;2.42;;
50789;SDS011;37287;47.554;7.844;2024-03-17T01:41:42;6.15;;;2.95;;
50789;SDS011;37287;47.554;7.844;2024-03-17T01:44:08;4.97;;;2.70;;
50789;SDS011;37287;47.554;7.844;2024-03-17T01:46:47;4.95;;;2.40;;
50789;SDS011;37287;47.554;7.844;2024-03-17T01:49:13;3.42;;;2.33;;
50789;SDS011;37287;47.554;7.844;2024-03-17T01:51:39;4.18;;;2.30;;
50789;SDS011;37287;47.554;7.844;2024-03-17T01:54:05;4.78;;;2.28;;
50789;SDS011;37287;47.554;7.844;2024-03-17T01:56:33;2.42;;;2.08;;
50789;SDS011;37287;47.554;7.844;2024-03-17T01:58:59;6.68;;;2.30;;
50789;SDS011;37287;47.554;7.844;2024-03-17T02:01:27;4.43;;;2.33;;
50789;SDS011;37287;47.554;7.844;2024-03-17T02:03:52;2.40;;;2.20;;
50789;SDS011;37287;47.554;7.844;2024-03-17T02:06:18;4.40;;;2.30;;
50789;SDS011;37287;47.554;7.844;2024-03-17T02:08:51;3.17;;;2.17;;
50789;SDS011;37287;47.554;7.844;2024-03-17T02:11:23;3.42;;;2.28;;
50789;SDS011;37287;47.554;7.844;2024-03-17T02:13:51;4.97;;;2.17;;
50789;SDS011;37287;47.554;7.844;2024-03-17T02:16:17;4.40;;;2.00;;
50789;SDS011;37287;47.554;7.844;2024-03-17T02:18:44;3.58;;;1.73;;
50789;SDS011;37287;47.554;7.844;2024-03-17T02:21:10;4.00;;;1.92;;
50789;SDS011;37287;47.554;7.844;2024-03-17T02:23:35;3.63;;;2.17;;
50789;SDS011;37287;47.554;7.844;2024-03-17T02:26:01;3.28;;;1.90;;
50789;SDS011;37287;47.554;7.844;2024-03-17T02:28:27;2.10;;;1.80;;
50789;SDS011;37287;47.554;7.844;2024-03-17T02:30:53;1.95;;;1.83;;
50789;SDS011;37287;47.554;7.844;2024-03-17T02:33:18;3.88;;;2.00;;
50789;SDS011;37287;47.554;7.844;2024-03-17T02:35:44;4.68;;;2.30;;
50789;SDS011;37287;47.554;7.844;2024-03-17T02:38:10;5.65;;;2.00;;
50789;SDS011;37287;47.554;7.844;2024-03-17T02:41:01;2.75;;;1.83;;
50789;SDS011;37287;47.554;7.844;2024-03-17T02:43:27;2.90;;;2.30;;
50789;SDS011;37287;47.554;7.844;2024-03-17T02:45:52;1.90;;;1.73;;
50789;SDS011;37287;47.554;7.844;2024-03-17T02:48:18;5.47;;;2.10;;
50789;SDS011;37287;47.554;7.844;2024-03-17T02:50:45;3.38;;;2.15;;
50789;SDS011;37287;47.554;7.844;2024-03-17T02:53:11;4.07;;;2.42;;
50789;SDS011;37287;47.554;7.844;2024-03-17T02:55:37;2.83;;;2.10;;
50789;SDS011;37287;47.554;7.844;2024-03-17T02:58:03;2.58;;;2.38;;
50789;SDS011;37287;47.554;7.844;2024-03-17T03:00:28;3.33;;;2.20;;
50789;SDS011;37287;47.554;7.844;2024-03-17T03:02:55;3.33;;;1.90;;
50789;SDS011;37287;47.554;7.844;2024-03-17T03:05:21;4.47;;;1.92;;
50789;SDS011;37287;47.554;7.844;2024-03-17T03:07:46;1.85;;;1.67;;
50789;SDS011;37287;47.554;7.844;2024-03-17T03:10:12;2.95;;;1.80;;
50789;SDS011;37287;47.554;7.844;2024-03-17T03:12:38;3.75;;;2.10;;
50789;SDS011;37287;47.554;7.844;2024-03-17T03:15:04;3.10;;;1.90;;
50789;SDS011;37287;47.554;7.844;2024-03-17T03:17:30;5.38;;;2.00;;
50789;SDS011;37287;47.554;7.844;2024-03-17T03:19:56;4.07;;;1.88;;
50789;SDS011;37287;47.554;7.844;2024-03-17T03:22:22;2.70;;;1.88;;
50789;SDS011;37287;47.554;7.844;2024-03-17T03:24:51;4.47;;;2.17;;
50789;SDS011;37287;47.554;7.844;2024-03-17T03:27:17;6.10;;;2.05;;
50789;SDS011;37287;47.554;7.844;2024-03-17T03:29:44;3.50;;;2.00;;
50789;SDS011;37287;47.554;7.844;2024-03-17T03:32:09;3.50;;;2.17;;
50789;SDS011;37287;47.554;7.844;2024-03-17T03:34:35;6.18;;;2.08;;
50789;SDS011;37287;47.554;7.844;2024-03-17T03:37:01;4.13;;;2.30;;
50789;SDS011;37287;47.554;7.844;2024-03-17T03:39:27;3.47;;;2.20;;
50789;SDS011;37287;47.554;7.844;2024-03-17T03:41:57;2.72;;;2.42;;
50789;SDS011;37287;47.554;7.844;2024-03-17T03:44:22;5.10;;;2.38;;
50789;SDS011;37287;47.554;7.844;2024-03-17T03:46:48;3.75;;;2.08;;
50789;SDS011;37287;47.554;7.844;2024-03-17T03:49:14;5.03;;;2.30;;
50789;SDS011;37287;47.554;7.844;2024-03-17T03:51:40;4.60;;;2.30;;
50789;SDS011;37287;47.554;7.844;2024-03-17T03:54:06;3.25;;;2.28;;
50789;SDS011;37287;47.554;7.844;2024-03-17T03:56:32;3.72;;;2.20;;
50789;SDS011;37287;47.554;7.844;2024-03-17T03:58:59;3.13;;;2.28;;
50789;SDS011;37287;47.554;7.844;2024-03-17T04:01:24;3.00;;;2.20;;
50789;SDS011;37287;47.554;7.844;2024-03-17T04:03:50;3.00;;;2.35;;
50789;SDS011;37287;47.554;7.844;2024-03-17T04:06:16;6.93;;;2.30;;
50789;SDS011;37287;47.554;7.844;2024-03-17T04:08:42;2.10;;;1.88;;
50789;SDS011;37287;47.554;7.844;2024-03-17T04:11:09;2.42;;;1.83;;
50789;SDS011;37287;47.554;7.844;2024-03-17T04:13:36;2.45;;;2.00;;
50789;SDS011;37287;47.554;7.844;2024-03-17T04:16:05;3.30;;;1.90;;
50789;SDS011;37287;47.554;7.844;2024-03-17T04:18:32;2.00;;;1.70;;
50789;SDS011;37287;47.554;7.844;2024-03-17T04:21:03;2.83;;;1.75;;
50789;SDS011;37287;47.554;7.844;2024-03-17T04:23:30;3.70;;;1.92;;
50789;SDS011;37287;47.554;7.844;2024-03-17T04:25:59;2.60;;;1.80;;
50789;SDS011;37287;47.554;7.844;2024-03-17T04:28:26;5.05;;;1.90;;
50789;SDS011;37287;47.554;7.844;2024-03-17T04:30:52;2.85;;;1.90;;
50789;SDS011;37287;47.554;7.844;2024-03-17T04:33:18;5.18;;;1.88;;
50789;SDS011;37287;47.554;7.844;2024-03-17T04:35:44;4.78;;;2.00;;
50789;SDS011;37287;47.554;7.844;2024-03-17T04:38:10;3.88;;;1.75;;
50789;SDS011;37287;47.554;7.844;2024-03-17T04:40:42;1.85;;;1.65;;
50789;SDS011;37287;47.554;7.844;2024-03-17T04:43:08;4.50;;;2.65;;
50789;SDS011;37287;47.554;7.844;2024-03-17T04:45:34;2.72;;;2.10;;
50789;SDS011;37287;47.554;7.844;2024-03-17T04:48:00;3.00;;;2.30;;
50789;SDS011;37287;47.554;7.844;2024-03-17T04:50:26;4.60;;;2.22;;
50789;SDS011;37287;47.554;7.844;2024-03-17T04:53:00;5.80;;;1.90;;
50789;SDS011;37287;47.554;7.844;2024-03-17T04:55:26;2.28;;;1.77;;
50789;SDS011;37287;47.554;7.844;2024-03-17T04:57:52;1.85;;;1.70;;
50789;SDS011;37287;47.554;7.844;2024-03-17T05:00:17;4.53;;;2.55;;
50789;SDS011;37287;47.554;7.844;2024-03-17T05:02:44;5.50;;;2.75;;
50789;SDS011;37287;47.554;7.844;2024-03-17T05:05:10;5.03;;;2.35;;
50789;SDS011;37287;47.554;7.844;2024-03-17T05:07:36;4.07;;;2.45;;
50789;SDS011;37287;47.554;7.844;2024-03-17T05:10:03;4.78;;;2.58;;
50789;SDS011;37287;47.554;7.844;2024-03-17T05:12:29;2.38;;;2.13;;
50789;SDS011;37287;47.554;7.844;2024-03-17T05:14:55;4.05;;;2.58;;
50789;SDS011;37287;47.554;7.844;2024-03-17T05:17:21;3.28;;;2.42;;
50789;SDS011;37287;47.554;7.844;2024-03-17T05:19:46;3.58;;;2.45;;
50789;SDS011;37287;47.554;7.844;2024-03-17T05:22:12;3.40;;;2.45;;
50789;SDS011;37287;47.554;7.844;2024-03-17T05:24:38;4.82;;;2.63;;
50789;SDS011;37287;47.554;7.844;2024-03-17T05:27:04;3.20;;;2.25;;
50789;SDS011;37287;47.554;7.844;2024-03-17T05:29:29;3.20;;;2.17;;
50789;SDS011;37287;47.554;7.844;2024-03-17T05:31:55;4.50;;;2.22;;
50789;SDS011;37287;47.554;7.844;2024-03-17T05:34:21;5.70;;;2.00;;
50789;SDS011;37287;47.554;7.844;2024-03-17T05:36:50;3.10;;;1.92;;
50789;SDS011;37287;47.554;7.844;2024-03-17T05:39:16;2.65;;;1.77;;
50789;SDS011;37287;47.554;7.844;2024-03-17T05:41:42;2.88;;;1.70;;
50789;SDS011;37287;47.554;7.844;2024-03-17T05:44:09;3.53;;;2.15;;
50789;SDS011;37287;47.554;7.844;2024-03-17T05:46:35;2.53;;;1.60;;
50789;SDS011;37287;47.554;7.844;2024-03-17T05:49:01;2.65;;;2.00;;
50789;SDS011;37287;47.554;7.844;2024-03-17T05:51:27;2.83;;;1.80;;
50789;SDS011;37287;47.554;7.844;2024-03-17T05:53:53;3.25;;;2.10;;
50789;SDS011;37287;47.554;7.844;2024-03-17T05:56:21;2.70;;;2.00;;
50789;SDS011;37287;47.554;7.844;2024-03-17T05:58:48;7.70;;;2.22;;
50789;SDS011;37287;47.554;7.844;2024-03-17T06:01:14;3.95;;;2.10;;
50789;SDS011;37287;47.554;7.844;2024-03-17T06:03:40;2.83;;;1.77;;
50789;SDS011;37287;47.554;7.844;2024-03-17T06:06:07;3.80;;;1.80;;
50789;SDS011;37287;47.554;7.844;2024-03-17T06:08:33;2.40;;;2.08;;
50789;SDS011;37287;47.554;7.844;2024-03-17T06:10:59;2.97;;;1.90;;
50789;SDS011;37287;47.554;7.844;2024-03-17T06:13:28;2.75;;;2.08;;
50789;SDS011;37287;47.554;7.844;2024-03-17T06:15:54;3.20;;;2.00;;
50789;SDS011;37287;47.554;7.844;2024-03-17T06:18:20;3.13;;;2.20;;
50789;SDS011;37287;47.554;7.844;2024-03-17T06:20:46;2.78;;;1.92;;
50789;SDS011;37287;47.554;7.844;2024-03-17T06:23:16;2.40;;;1.80;;
50789;SDS011;37287;47.554;7.844;2024-03-17T06:25:43;3.70;;;1.85;;
50789;SDS011;37287;47.554;7.844;2024-03-17T06:28:11;4.72;;;2.00;;
50789;SDS011;37287;47.554;7.844;2024-03-17T06:30:43;4.40;;;2.08;;
50789;SDS011;37287;47.554;7.844;2024-03-17T06:33:13;3.05;;;1.90;;
50789;SDS011;37287;47.554;7.844;2024-03-17T06:35:44;3.55;;;1.88;;
50789;SDS011;37287;47.554;7.844;2024-03-17T06:38:12;3.17;;;1.95;;
50789;SDS011;37287;47.554;7.844;2024-03-17T06:40:38;3.42;;;2.05;;
50789;SDS011;37287;47.554;7.844;2024-03-17T06:43:04;3.13;;;1.83;;
50789;SDS011;37287;47.554;7.844;2024-03-17T06:45:31;5.15;;;2.20;;
50789;SDS011;37287;47.554;7.844;2024-03-17T06:47:57;4.88;;;2.35;;
50789;SDS011;37287;47.554;7.844;2024-03-17T06:50:23;4.20;;;2.03;;
50789;SDS011;37287;47.554;7.844;2024-03-17T07:41:45;2.60;;;1.50;;
50789;SDS011;37287;47.554;7.844;2024-03-17T07:44:11;1.98;;;1.85;;
50789;SDS011;37287;47.554;7.844;2024-03-17T07:46:37;3.53;;;2.20;;
50789;SDS011;37287;47.554;7.844;2024-03-17T07:49:03;5.55;;;2.20;;
50789;SDS011;37287;47.554;7.844;2024-03-17T07:51:29;1.83;;;1.63;;
50789;SDS011;37287;47.554;7.844;2024-03-17T07:53:54;2.33;;;1.83;;
50789;SDS011;37287;47.554;7.844;2024-03-17T07:56:20;2.60;;;1.60;;
50789;SDS011;37287;47.554;7.844;2024-03-17T07:58:46;5.07;;;2.13;;
50789;SDS011;37287;47.554;7.844;2024-03-17T08:01:15;1.90;;;1.70;;
50789;SDS011;37287;47.554;7.844;2024-03-17T08:03:45;2.08;;;1.80;;
50789;SDS011;37287;47.554;7.844;2024-03-17T08:06:14;2.13;;;1.70;;
50789;SDS011;37287;47.554;7.844;2024-03-17T08:08:40;3.58;;;1.90;;
50789;SDS011;37287;47.554;7.844;2024-03-17T08:11:06;4.90;;;2.00;;
50789;SDS011;37287;47.554;7.844;2024-03-17T08:13:32;4.20;;;1.90;;
50789;SDS011;37287;47.554;7.844;2024-03-17T08:16:03;2.88;;;1.80;;
50789;SDS011;37287;47.554;7.844;2024-03-17T08:18:31;2.20;;;1.90;;
50789;SDS011;37287;47.554;7.844;2024-03-17T08:20:59;2.55;;;2.10;;
50789;SDS011;37287;47.554;7.844;2024-03-17T08:23:25;2.53;;;2.33;;
50789;SDS011;37287;47.554;7.844;2024-03-17T08:25:58;2.47;;;1.90;;
50789;SDS011;37287;47.554;7.844;2024-03-17T08:28:25;4.05;;;2.10;;
50789;SDS011;37287;47.554;7.844;2024-03-17T08:30:59;4.15;;;2.00;;
50789;SDS011;37287;47.554;7.844;2024-03-17T08:33:27;4.32;;;2.08;;
50789;SDS011;37287;47.554;7.844;2024-03-17T08:38:20;3.03;;;1.98;;
50789;SDS011;37287;47.554;7.844;2024-03-17T08:40:46;2.78;;;1.80;;
50789;SDS011;37287;47.554;7.844;2024-03-17T08:43:12;2.95;;;2.17;;
50789;SDS011;37287;47.554;7.844;2024-03-17T08:45:38;4.03;;;1.83;;
50789;SDS011;37287;47.554;7.844;2024-03-17T08:48:04;2.67;;;1.90;;
50789;SDS011;37287;47.554;7.844;2024-03-17T08:50:30;4.75;;;2.30;;
50789;SDS011;37287;47.554;7.844;2024-03-17T08:52:58;5.22;;;2.20;;
50789;SDS011;37287;47.554;7.844;2024-03-17T08:55:24;3.55;;;2.22;;
50789;SDS011;37287;47.554;7.844;2024-03-17T08:57:50;2.50;;;1.80;;
50789;SDS011;37287;47.554;7.844;2024-03-17T09:00:16;3.30;;;2.17;;
50789;SDS011;37287;47.554;7.844;2024-03-17T09:02:42;4.22;;;2.00;;
50789;SDS011;37287;47.554;7.844;2024-03-17T09:05:08;2.90;;;2.35;;
50789;SDS011;37287;47.554;7.844;2024-03-17T09:07:33;4.88;;;2.88;;
50789;SDS011;37287;47.554;7.844;2024-03-17T09:09:59;6.22;;;3.25;;
50789;SDS011;37287;47.554;7.844;2024-03-17T09:12:25;6.57;;;3.22;;
50789;SDS011;37287;47.554;7.844;2024-03-17T09:14:52;6.63;;;3.38;;
50789;SDS011;37287;47.554;7.844;2024-03-17T09:17:19;4.63;;;3.35;;
50789;SDS011;37287;47.554;7.844;2024-03-17T09:19:46;3.55;;;3.05;;
50789;SDS011;37287;47.554;7.844;2024-03-17T09:22:13;4.93;;;3.13;;
50789;SDS011;37287;47.554;7.844;2024-03-17T09:24:39;7.20;;;4.10;;
50789;SDS011;37287;47.554;7.844;2024-03-17T09:27:06;10.10;;;4.10;;
50789;SDS011;37287;47.554;7.844;2024-03-17T09:29:32;5.45;;;3.30;;
50789;SDS011;37287;47.554;7.844;2024-03-17T09:31:58;5.90;;;3.60;;
50789;SDS011;37287;47.554;7.844;2024-03-17T09:34:24;5.45;;;3.30;;
50789;SDS011;37287;47.554;7.844;2024-03-17T09:36:50;4.07;;;3.10;;
50789;SDS011;37287;47.554;7.844;2024-03-17T09:39:16;3.97;;;3.10;;
50789;SDS011;37287;47.554;7.844;2024-03-17T09:41:42;3.85;;;3.30;;
50789;SDS011;37287;47.554;7.844;2024-03-17T09:44:11;4.57;;;3.38;;
50789;SDS011;37287;47.554;7.844;2024-03-17T09:46:40;3.72;;;3.00;;
50789;SDS011;37287;47.554;7.844;2024-03-17T09:49:14;4.88;;;2.85;;
50789;SDS011;37287;47.554;7.844;2024-03-17T09:51:44;4.32;;;2.72;;
50789;SDS011;37287;47.554;7.844;2024-03-17T09:54:18;6.75;;;3.13;;
50789;SDS011;37287;47.554;7.844;2024-03-17T09:56:44;6.40;;;2.92;;
50789;SDS011;37287;47.554;7.844;2024-03-17T09:59:11;3.83;;;2.75;;
50789;SDS011;37287;47.554;7.844;2024-03-17T10:01:37;3.85;;;2.95;;
50789;SDS011;37287;47.554;7.844;2024-03-17T10:04:03;3.13;;;2.65;;
50789;SDS011;37287;47.554;7.844;2024-03-17T10:06:29;2.60;;;2.40;;
50789;SDS011;37287;47.554;7.844;2024-03-17T10:08:56;4.28;;;2.55;;
50789;SDS011;37287;47.554;7.844;2024-03-17T10:11:24;5.95;;;2.80;;
50789;SDS011;37287;47.554;7.844;2024-03-17T10:14:04;6.40;;;2.85;;
50789;SDS011;37287;47.554;7.844;2024-03-17T10:16:34;2.65;;;2.22;;
50789;SDS011;37287;47.554;7.844;2024-03-17T10:19:08;2.58;;;2.22;;
50789;SDS011;37287;47.554;7.844;2024-03-17T10:21:41;4.15;;;2.60;;
50789;SDS011;37287;47.554;7.844;2024-03-17T10:24:14;3.35;;;2.13;;
50789;SDS011;37287;47.554;7.844;2024-03-17T10:26:49;4.40;;;3.08;;
50789;SDS011;37287;47.554;7.844;2024-03-17T10:31:44;4.20;;;2.58;;
50789;SDS011;37287;47.554;7.844;2024-03-17T10:34:14;3.33;;;2.45;;
50789;SDS011;37287;47.554;7.844;2024-03-17T10:36:44;6.30;;;2.55;;
50789;SDS011;37287;47.554;7.844;2024-03-17T10:39:24;3.65;;;2.72;;
50789;SDS011;37287;47.554;7.844;2024-03-17T10:41:59;2.33;;;1.90;;
50789;SDS011;37287;47.554;7.844;2024-03-17T10:44:29;3.47;;;2.50;;
50789;SDS011;37287;47.554;7.844;2024-03-17T10:46:57;3.03;;;2.05;;
50789;SDS011;37287;47.554;7.844;2024-03-17T10:49:33;4.85;;;2.33;;
50789;SDS011;37287;47.554;7.844;2024-03-17T10:52:00;4.28;;;2.80;;
50789;SDS011;37287;47.554;7.844;2024-03-17T10:54:29;4.90;;;2.22;;
50789;SDS011;37287;47.554;7.844;2024-03-17T10:56:57;2.97;;;2.17;;
50789;SDS011;37287;47.554;7.844;2024-03-17T10:59:41;4.85;;;2.33;;
50789;SDS011;37287;47.554;7.844;2024-03-17T11:02:17;2.50;;;1.90;;
50789;SDS011;37287;47.554;7.844;2024-03-17T11:04:59;3.38;;;2.00;;
50789;SDS011;37287;47.554;7.844;2024-03-17T11:07:27;3.10;;;2.20;;
50789;SDS011;37287;47.554;7.844;2024-03-17T11:09:57;2.95;;;2.10;;
50789;SDS011;37287;47.554;7.844;2024-03-17T11:17:54;2.97;;;1.92;;
50789;SDS011;37287;47.554;7.844;2024-03-17T11:20:24;2.92;;;1.88;;
50789;SDS011;37287;47.554;7.844;2024-03-17T11:22:54;3.08;;;2.08;;
50789;SDS011;37287;47.554;7.844;2024-03-17T11:28:03;3.23;;;1.90;;
50789;SDS011;37287;47.554;7.844;2024-03-17T11:49:22;3.45;;;2.00;;
50789;SDS011;37287;47.554;7.844;2024-03-17T11:51:53;2.13;;;1.80;;
50789;SDS011;37287;47.554;7.844;2024-03-17T11:54:21;2.38;;;2.17;;
50789;SDS011;37287;47.554;7.844;2024-03-17T11:56:49;2.90;;;2.00;;
50789;SDS011;37287;47.554;7.844;2024-03-17T11:59:19;5.20;;;2.08;;
50789;SDS011;37287;47.554;7.844;2024-03-17T12:04:15;3.10;;;2.05;;
50789;SDS011;37287;47.554;7.844;2024-03-17T12:06:45;3.08;;;1.98;;
50789;SDS011;37287;47.554;7.844;2024-03-17T12:11:50;2.53;;;1.90;;
50789;SDS011;37287;47.554;7.844;2024-03-17T12:14:24;2.22;;;1.98;;
50789;SDS011;37287;47.554;7.844;2024-03-17T12:16:51;3.35;;;2.25;;
50789;SDS011;37287;47.554;7.844;2024-03-17T12:19:19;3.03;;;2.25;;
50789;SDS011;37287;47.554;7.844;2024-03-17T12:21:49;2.05;;;1.77;;
50789;SDS011;37287;47.554;7.844;2024-03-17T12:24:20;2.97;;;1.90;;
50789;SDS011;37287;47.554;7.844;2024-03-17T12:26:48;3.85;;;2.20;;
50789;SDS011;37287;47.554;7.844;2024-03-17T12:29:28;3.47;;;2.13;;
50789;SDS011;37287;47.554;7.844;2024-03-17T12:31:56;3.28;;;1.77;;
50789;SDS011;37287;47.554;7.844;2024-03-17T12:34:25;2.58;;;1.70;;
50789;SDS011;37287;47.554;7.844;2024-03-17T12:36:52;1.90;;;1.67;;
50789;SDS011;37287;47.554;7.844;2024-03-17T12:39:23;3.53;;;2.00;;
50789;SDS011;37287;47.554;7.844;2024-03-17T12:42:13;3.70;;;1.98;;
50789;SDS011;37287;47.554;7.844;2024-03-17T12:47:18;2.78;;;1.60;;
50789;SDS011;37287;47.554;7.844;2024-03-17T12:49:45;2.63;;;1.98;;
50789;SDS011;37287;47.554;7.844;2024-03-17T12:52:19;2.70;;;1.92;;
50789;SDS011;37287;47.554;7.844;2024-03-17T12:54:57;4.00;;;2.00;;
50789;SDS011;37287;47.554;7.844;2024-03-17T12:57:43;2.22;;;1.90;;
50789;SDS011;37287;47.554;7.844;2024-03-17T13:00:28;1.90;;;1.70;;
50789;SDS011;37287;47.554;7.844;2024-03-17T13:02:57;2.97;;;1.90;;
50789;SDS011;37287;47.554;7.844;2024-03-17T13:05:26;4.00;;;2.00;;
50789;SDS011;37287;47.554;7.844;2024-03-17T13:07:52;2.90;;;1.73;;
50789;SDS011;37287;47.554;7.844;2024-03-17T13:10:22;2.25;;;1.90;;
50789;SDS011;37287;47.554;7.844;2024-03-17T13:12:57;4.82;;;2.25;;
50789;SDS011;37287;47.554;7.844;2024-03-17T13:15:32;2.45;;;1.83;;
50789;SDS011;37287;47.554;7.844;2024-03-17T13:18:01;2.88;;;2.17;;
50789;SDS011;37287;47.554;7.844;2024-03-17T13:20:53;4.70;;;2.60;;
50789;SDS011;37287;47.554;7.844;2024-03-17T13:23:20;2.80;;;1.92;;
50789;SDS011;37287;47.554;7.844;2024-03-17T13:25:49;3.03;;;1.92;;
50789;SDS011;37287;47.554;7.844;2024-03-17T13:28:15;2.78;;;2.28;;
50789;SDS011;37287;47.554;7.844;2024-03-17T13:30:41;3.50;;;2.30;;
50789;SDS011;37287;47.554;7.844;2024-03-17T13:33:08;3.83;;;2.20;;
50789;SDS011;37287;47.554;7.844;2024-03-17T13:35:34;3.10;;;2.15;;
50789;SDS011;37287;47.554;7.844;2024-03-17T13:38:07;3.83;;;2.20;;
50789;SDS011;37287;47.554;7.844;2024-03-17T13:40:36;5.22;;;2.28;;
50789;SDS011;37287;47.554;7.844;2024-03-17T13:43:04;4.22;;;2.20;;
50789;SDS011;37287;47.554;7.844;2024-03-17T13:45:40;3.47;;;1.88;;
50789;SDS011;37287;47.554;7.844;2024-03-17T13:48:08;4.50;;;2.83;;
50789;SDS011;37287;47.554;7.844;2024-03-17T13:50:37;4.90;;;2.60;;
50789;SDS011;37287;47.554;7.844;2024-03-17T13:53:04;5.20;;;2.60;;
50789;SDS011;37287;47.554;7.844;2024-03-17T13:55:30;5.30;;;2.40;;
50789;SDS011;37287;47.554;7.844;2024-03-17T13:57:56;7.50;;;2.60;;
50789;SDS011;37287;47.554;7.844;2024-03-17T14:00:24;4.35;;;2.70;;
50789;SDS011;37287;47.554;7.844;2024-03-17T14:02:51;3.28;;;2.45;;
50789;SDS011;37287;47.554;7.844;2024-03-17T14:05:19;6.20;;;2.50;;
50789;SDS011;37287;47.554;7.844;2024-03-17T14:07:46;4.03;;;3.00;;
50789;SDS011;37287;47.554;7.844;2024-03-17T14:10:13;4.00;;;2.92;;
50789;SDS011;37287;47.554;7.844;2024-03-17T14:12:41;4.80;;;2.90;;
50789;SDS011;37287;47.554;7.844;2024-03-17T14:15:08;3.13;;;2.75;;
50789;SDS011;37287;47.554;7.844;2024-03-17T14:17:38;3.72;;;2.80;;
50789;SDS011;37287;47.554;7.844;2024-03-17T14:20:05;5.25;;;2.97;;
50789;SDS011;37287;47.554;7.844;2024-03-17T14:22:35;3.78;;;2.85;;
50789;SDS011;37287;47.554;7.844;2024-03-17T14:25:15;4.82;;;3.22;;
50789;SDS011;37287;47.554;7.844;2024-03-17T14:27:42;5.65;;;2.97;;
50789;SDS011;37287;47.554;7.844;2024-03-17T14:30:08;4.05;;;2.55;;
50789;SDS011;37287;47.554;7.844;2024-03-17T14:32:38;4.13;;;2.90;;
50789;SDS011;37287;47.554;7.844;2024-03-17T14:35:04;5.43;;;3.15;;
50789;SDS011;37287;47.554;7.844;2024-03-17T14:37:31;5.10;;;2.75;;
50789;SDS011;37287;47.554;7.844;2024-03-17T14:39:56;3.80;;;2.90;;
50789;SDS011;37287;47.554;7.844;2024-03-17T14:42:22;6.43;;;3.88;;
50789;SDS011;37287;47.554;7.844;2024-03-17T14:44:48;6.82;;;3.33;;
50789;SDS011;37287;47.554;7.844;2024-03-17T14:47:14;4.80;;;3.13;;
50789;SDS011;37287;47.554;7.844;2024-03-17T14:49:40;5.53;;;3.10;;
50789;SDS011;37287;47.554;7.844;2024-03-17T14:52:07;4.40;;;3.10;;
50789;SDS011;37287;47.554;7.844;2024-03-17T14:54:34;3.60;;;2.90;;
50789;SDS011;37287;47.554;7.844;2024-03-17T14:57:00;4.13;;;2.30;;
50789;SDS011;37287;47.554;7.844;2024-03-17T14:59:25;3.42;;;2.55;;
50789;SDS011;37287;47.554;7.844;2024-03-17T15:01:51;3.72;;;2.35;;
50789;SDS011;37287;47.554;7.844;2024-03-17T15:04:17;3.22;;;2.00;;
50789;SDS011;37287;47.554;7.844;2024-03-17T15:06:44;3.75;;;2.20;;
50789;SDS011;37287;47.554;7.844;2024-03-17T15:09:10;4.65;;;2.40;;
50789;SDS011;37287;47.554;7.844;2024-03-17T15:11:38;6.25;;;2.28;;
50789;SDS011;37287;47.554;7.844;2024-03-17T15:14:03;4.05;;;2.28;;
50789;SDS011;37287;47.554;7.844;2024-03-17T15:16:36;2.28;;;1.80;;
50789;SDS011;37287;47.554;7.844;2024-03-17T15:19:04;4.68;;;2.10;;
50789;SDS011;37287;47.554;7.844;2024-03-17T15:21:31;5.20;;;2.17;;
50789;SDS011;37287;47.554;7.844;2024-03-17T15:23:57;2.47;;;1.75;;
50789;SDS011;37287;47.554;7.844;2024-03-17T15:26:23;3.30;;;1.90;;
50789;SDS011;37287;47.554;7.844;2024-03-17T15:28:49;3.47;;;1.95;;
50789;SDS011;37287;47.554;7.844;2024-03-17T15:31:15;3.10;;;1.88;;
50789;SDS011;37287;47.554;7.844;2024-03-17T15:33:43;6.38;;;1.85;;
50789;SDS011;37287;47.554;7.844;2024-03-17T15:36:09;4.50;;;1.85;;
50789;SDS011;37287;47.554;7.844;2024-03-17T15:38:35;3.17;;;1.65;;
50789;SDS011;37287;47.554;7.844;2024-03-17T15:41:05;4.50;;;1.80;;
50789;SDS011;37287;47.554;7.844;2024-03-17T15:43:33;4.32;;;2.10;;
50789;SDS011;37287;47.554;7.844;2024-03-17T15:46:01;2.97;;;2.00;;
50789;SDS011;37287;47.554;7.844;2024-03-17T15:48:27;2.55;;;1.70;;
50789;SDS011;37287;47.554;7.844;2024-03-17T15:50:57;2.35;;;1.88;;
50789;SDS011;37287;47.554;7.844;2024-03-17T15:53:24;3.28;;;1.90;;
50789;SDS011;37287;47.554;7.844;2024-03-17T15:55:56;2.42;;;1.50;;
50789;SDS011;37287;47.554;7.844;2024-03-17T15:58:23;1.75;;;1.65;;
50789;SDS011;37287;47.554;7.844;2024-03-17T16:00:49;5.68;;;1.80;;
50789;SDS011;37287;47.554;7.844;2024-03-17T16:03:15;3.90;;;1.80;;
50789;SDS011;37287;47.554;7.844;2024-03-17T16:05:47;4.15;;;1.67;;
50789;SDS011;37287;47.554;7.844;2024-03-17T16:08:15;2.35;;;1.65;;
50789;SDS011;37287;47.554;7.844;2024-03-17T16:10:45;5.03;;;1.80;;
50789;SDS011;37287;47.554;7.844;2024-03-17T16:13:13;3.85;;;1.55;;
50789;SDS011;37287;47.554;7.844;2024-03-17T16:15:41;2.55;;;1.52;;
50789;SDS011;37287;47.554;7.844;2024-03-17T16:18:09;4.05;;;1.67;;
50789;SDS011;37287;47.554;7.844;2024-03-17T16:23:14;4.72;;;2.00;;